sensor_id;sensor_type;location;lat;lon;timestamp;P1;durP1;ratioP1;P2;durP2;ratioP2
2474;SDS011;1248;48.694;10.160;2022-11-15T00:00:54;20.70;;;15.13;;
2474;SDS011;1248;48.694;10.160;2022-11-15T00:03:22;25.80;;;18.00;;
2474;SDS011;1248;48.694;10.160;2022-11-15T00:05:50;19.07;;;14.90;;
2474;SDS011;1248;48.694;10.160;2022-11-15T00:08:18;23.47;;;16.13;;
2474;SDS011;1248;48.694;10.160;2022-11-15T00:10:53;18.87;;;14.87;;
2474;SDS011;1248;48.694;10.160;2022-11-15T00:13:20;19.03;;;13.90;;
2474;SDS011;1248;48.694;10.160;2022-11-15T00:15:47;17.53;;;11.50;;
2474;SDS011;1248;48.694;10.160;2022-11-15T00:18:15;12.23;;;9.23;;
2474;SDS011;1248;48.694;10.160;2022-11-15T00:20:43;11.90;;;9.40;;
2474;SDS011;1248;48.694;10.160;2022-11-15T00:23:10;13.57;;;9.67;;
2474;SDS011;1248;48.694;10.160;2022-11-15T00:25:38;13.03;;;8.50;;
2474;SDS011;1248;48.694;10.160;2022-11-15T00:28:06;12.03;;;9.00;;
2474;SDS011;1248;48.694;10.160;2022-11-15T00:30:33;13.13;;;9.30;;
2474;SDS011;1248;48.694;10.160;2022-11-15T00:33:01;10.77;;;8.00;;
2474;SDS011;1248;48.694;10.160;2022-11-15T00:35:30;12.90;;;9.60;;
2474;SDS011;1248;48.694;10.160;2022-11-15T00:37:58;10.53;;;8.97;;
2474;SDS011;1248;48.694;10.160;2022-11-15T00:40:25;11.60;;;8.50;;
2474;SDS011;1248;48.694;10.160;2022-11-15T00:42:53;12.20;;;9.13;;
2474;SDS011;1248;48.694;10.160;2022-11-15T00:45:20;14.90;;;10.20;;
2474;SDS011;1248;48.694;10.160;2022-11-15T00:47:47;19.07;;;12.00;;
2474;SDS011;1248;48.694;10.160;2022-11-15T00:50:15;15.70;;;11.40;;
2474;SDS011;1248;48.694;10.160;2022-11-15T00:52:42;15.00;;;11.80;;
2474;SDS011;1248;48.694;10.160;2022-11-15T00:55:12;12.33;;;10.23;;
2474;SDS011;1248;48.694;10.160;2022-11-15T00:57:40;13.77;;;10.53;;
2474;SDS011;1248;48.694;10.160;2022-11-15T01:00:09;14.53;;;10.90;;
2474;SDS011;1248;48.694;10.160;2022-11-15T01:02:37;14.40;;;10.67;;
2474;SDS011;1248;48.694;10.160;2022-11-15T01:05:04;15.90;;;11.90;;
2474;SDS011;1248;48.694;10.160;2022-11-15T01:07:32;16.53;;;11.40;;
2474;SDS011;1248;48.694;10.160;2022-11-15T01:09:59;20.57;;;12.00;;
2474;SDS011;1248;48.694;10.160;2022-11-15T01:12:26;14.20;;;10.87;;
2474;SDS011;1248;48.694;10.160;2022-11-15T01:14:53;13.43;;;11.50;;
2474;SDS011;1248;48.694;10.160;2022-11-15T01:17:22;13.87;;;10.70;;
2474;SDS011;1248;48.694;10.160;2022-11-15T01:19:49;12.60;;;9.90;;
2474;SDS011;1248;48.694;10.160;2022-11-15T01:22:16;13.13;;;9.83;;
2474;SDS011;1248;48.694;10.160;2022-11-15T01:24:43;11.63;;;9.60;;
2474;SDS011;1248;48.694;10.160;2022-11-15T01:27:10;10.73;;;9.40;;
2474;SDS011;1248;48.694;10.160;2022-11-15T01:29:37;12.57;;;8.70;;
2474;SDS011;1248;48.694;10.160;2022-11-15T01:32:05;11.90;;;8.70;;
2474;SDS011;1248;48.694;10.160;2022-11-15T01:34:33;10.40;;;8.27;;
2474;SDS011;1248;48.694;10.160;2022-11-15T01:37:00;10.03;;;8.50;;
2474;SDS011;1248;48.694;10.160;2022-11-15T01:39:27;15.97;;;12.07;;
2474;SDS011;1248;48.694;10.160;2022-11-15T01:41:54;14.07;;;10.57;;
2474;SDS011;1248;48.694;10.160;2022-11-15T01:44:42;11.50;;;9.80;;
2474;SDS011;1248;48.694;10.160;2022-11-15T01:47:11;12.40;;;9.47;;
2474;SDS011;1248;48.694;10.160;2022-11-15T01:49:44;12.97;;;10.23;;
2474;SDS011;1248;48.694;10.160;2022-11-15T01:52:17;13.77;;;10.50;;
2474;SDS011;1248;48.694;10.160;2022-11-15T01:54:46;13.47;;;10.93;;
2474;SDS011;1248;48.694;10.160;2022-11-15T01:57:14;12.10;;;9.77;;
2474;SDS011;1248;48.694;10.160;2022-11-15T01:59:42;15.20;;;10.43;;
2474;SDS011;1248;48.694;10.160;2022-11-15T02:02:10;14.80;;;10.80;;
2474;SDS011;1248;48.694;10.160;2022-11-15T02:04:38;16.07;;;10.17;;
2474;SDS011;1248;48.694;10.160;2022-11-15T02:07:09;14.17;;;9.63;;
2474;SDS011;1248;48.694;10.160;2022-11-15T02:09:38;11.53;;;9.80;;
2474;SDS011;1248;48.694;10.160;2022-11-15T02:12:05;15.03;;;10.33;;
2474;SDS011;1248;48.694;10.160;2022-11-15T02:14:34;11.70;;;9.30;;
2474;SDS011;1248;48.694;10.160;2022-11-15T02:17:05;14.23;;;10.10;;
2474;SDS011;1248;48.694;10.160;2022-11-15T02:19:58;10.00;;;8.63;;
2474;SDS011;1248;48.694;10.160;2022-11-15T02:22:41;11.27;;;8.90;;
2474;SDS011;1248;48.694;10.160;2022-11-15T02:25:18;17.80;;;11.27;;
2474;SDS011;1248;48.694;10.160;2022-11-15T02:27:59;13.30;;;10.30;;
2474;SDS011;1248;48.694;10.160;2022-11-15T02:30:42;13.13;;;9.47;;
2474;SDS011;1248;48.694;10.160;2022-11-15T02:33:14;13.57;;;11.37;;
2474;SDS011;1248;48.694;10.160;2022-11-15T02:35:50;14.83;;;10.87;;
2474;SDS011;1248;48.694;10.160;2022-11-15T02:38:24;17.83;;;10.17;;
2474;SDS011;1248;48.694;10.160;2022-11-15T02:40:57;14.40;;;12.03;;
2474;SDS011;1248;48.694;10.160;2022-11-15T02:43:27;17.10;;;11.00;;
2474;SDS011;1248;48.694;10.160;2022-11-15T02:46:16;17.20;;;11.37;;
2474;SDS011;1248;48.694;10.160;2022-11-15T02:48:45;17.17;;;10.90;;
2474;SDS011;1248;48.694;10.160;2022-11-15T02:51:13;14.20;;;10.30;;
2474;SDS011;1248;48.694;10.160;2022-11-15T02:53:40;12.27;;;10.97;;
2474;SDS011;1248;48.694;10.160;2022-11-15T02:56:07;15.90;;;11.90;;
2474;SDS011;1248;48.694;10.160;2022-11-15T03:01:41;17.50;;;12.57;;
2474;SDS011;1248;48.694;10.160;2022-11-15T03:04:19;20.90;;;14.33;;
2474;SDS011;1248;48.694;10.160;2022-11-15T03:06:52;22.40;;;13.73;;
2474;SDS011;1248;48.694;10.160;2022-11-15T03:09:23;27.27;;;15.80;;
2474;SDS011;1248;48.694;10.160;2022-11-15T03:11:58;24.40;;;13.83;;
2474;SDS011;1248;48.694;10.160;2022-11-15T03:14:29;16.00;;;11.20;;
2474;SDS011;1248;48.694;10.160;2022-11-15T03:17:01;18.97;;;12.87;;
2474;SDS011;1248;48.694;10.160;2022-11-15T03:19:32;17.77;;;12.50;;
2474;SDS011;1248;48.694;10.160;2022-11-15T03:22:02;15.07;;;11.73;;
2474;SDS011;1248;48.694;10.160;2022-11-15T03:24:31;12.37;;;10.83;;
2474;SDS011;1248;48.694;10.160;2022-11-15T03:27:01;17.57;;;12.03;;
2474;SDS011;1248;48.694;10.160;2022-11-15T03:29:31;23.90;;;12.47;;
2474;SDS011;1248;48.694;10.160;2022-11-15T03:32:02;16.33;;;12.77;;
2474;SDS011;1248;48.694;10.160;2022-11-15T03:34:31;20.37;;;12.23;;
2474;SDS011;1248;48.694;10.160;2022-11-15T03:37:00;15.20;;;12.77;;
2474;SDS011;1248;48.694;10.160;2022-11-15T03:39:28;16.33;;;12.37;;
2474;SDS011;1248;48.694;10.160;2022-11-15T03:41:57;16.47;;;11.97;;
2474;SDS011;1248;48.694;10.160;2022-11-15T03:44:33;18.50;;;11.23;;
2474;SDS011;1248;48.694;10.160;2022-11-15T03:47:06;16.30;;;12.33;;
2474;SDS011;1248;48.694;10.160;2022-11-15T03:49:36;21.53;;;13.63;;
2474;SDS011;1248;48.694;10.160;2022-11-15T03:52:05;28.87;;;13.23;;
2474;SDS011;1248;48.694;10.160;2022-11-15T03:54:32;42.83;;;16.23;;
2474;SDS011;1248;48.694;10.160;2022-11-15T03:56:59;19.93;;;13.77;;
2474;SDS011;1248;48.694;10.160;2022-11-15T03:59:26;37.87;;;15.10;;
2474;SDS011;1248;48.694;10.160;2022-11-15T04:01:53;24.47;;;13.60;;
2474;SDS011;1248;48.694;10.160;2022-11-15T04:04:22;23.13;;;13.50;;
2474;SDS011;1248;48.694;10.160;2022-11-15T04:06:49;19.40;;;12.17;;
2474;SDS011;1248;48.694;10.160;2022-11-15T04:09:16;19.57;;;13.40;;
2474;SDS011;1248;48.694;10.160;2022-11-15T04:11:43;19.67;;;11.87;;
2474;SDS011;1248;48.694;10.160;2022-11-15T04:14:10;23.50;;;13.27;;
2474;SDS011;1248;48.694;10.160;2022-11-15T04:16:37;36.53;;;13.70;;
2474;SDS011;1248;48.694;10.160;2022-11-15T04:19:04;44.50;;;15.30;;
2474;SDS011;1248;48.694;10.160;2022-11-15T04:21:50;24.50;;;13.57;;
2474;SDS011;1248;48.694;10.160;2022-11-15T04:24:34;64.67;;;17.60;;
2474;SDS011;1248;48.694;10.160;2022-11-15T04:27:01;89.00;;;18.63;;
2474;SDS011;1248;48.694;10.160;2022-11-15T04:29:28;89.83;;;17.37;;
2474;SDS011;1248;48.694;10.160;2022-11-15T04:32:02;120.73;;;18.60;;
2474;SDS011;1248;48.694;10.160;2022-11-15T04:34:29;46.60;;;15.33;;
2474;SDS011;1248;48.694;10.160;2022-11-15T04:36:58;78.63;;;16.37;;
2474;SDS011;1248;48.694;10.160;2022-11-15T04:39:42;53.97;;;15.30;;
2474;SDS011;1248;48.694;10.160;2022-11-15T04:42:09;126.87;;;22.17;;
2474;SDS011;1248;48.694;10.160;2022-11-15T04:44:37;100.67;;;17.33;;
2474;SDS011;1248;48.694;10.160;2022-11-15T04:47:04;98.40;;;18.67;;
2474;SDS011;1248;48.694;10.160;2022-11-15T04:49:31;48.77;;;16.27;;
2474;SDS011;1248;48.694;10.160;2022-11-15T04:52:00;24.40;;;14.60;;
2474;SDS011;1248;48.694;10.160;2022-11-15T04:54:27;88.40;;;18.90;;
2474;SDS011;1248;48.694;10.160;2022-11-15T04:56:54;96.37;;;20.30;;
2474;SDS011;1248;48.694;10.160;2022-11-15T04:59:21;64.27;;;16.13;;
2474;SDS011;1248;48.694;10.160;2022-11-15T05:01:48;60.97;;;18.47;;
2474;SDS011;1248;48.694;10.160;2022-11-15T05:04:15;61.60;;;18.17;;
2474;SDS011;1248;48.694;10.160;2022-11-15T05:06:44;71.57;;;18.43;;
2474;SDS011;1248;48.694;10.160;2022-11-15T05:09:13;41.63;;;20.47;;
2474;SDS011;1248;48.694;10.160;2022-11-15T05:11:41;54.70;;;22.00;;
2474;SDS011;1248;48.694;10.160;2022-11-15T05:14:08;51.30;;;20.30;;
2474;SDS011;1248;48.694;10.160;2022-11-15T05:16:35;40.77;;;20.40;;
2474;SDS011;1248;48.694;10.160;2022-11-15T05:19:02;37.03;;;18.50;;
2474;SDS011;1248;48.694;10.160;2022-11-15T05:21:30;49.07;;;20.33;;
2474;SDS011;1248;48.694;10.160;2022-11-15T05:23:57;55.23;;;21.20;;
2474;SDS011;1248;48.694;10.160;2022-11-15T05:26:26;69.57;;;24.00;;
2474;SDS011;1248;48.694;10.160;2022-11-15T05:28:53;60.73;;;22.30;;
2474;SDS011;1248;48.694;10.160;2022-11-15T05:31:21;46.90;;;21.73;;
2474;SDS011;1248;48.694;10.160;2022-11-15T05:33:48;34.47;;;19.47;;
2474;SDS011;1248;48.694;10.160;2022-11-15T05:36:17;40.73;;;20.33;;
2474;SDS011;1248;48.694;10.160;2022-11-15T05:38:45;46.03;;;19.13;;
2474;SDS011;1248;48.694;10.160;2022-11-15T05:41:13;35.63;;;19.20;;
2474;SDS011;1248;48.694;10.160;2022-11-15T05:43:43;33.70;;;20.07;;
2474;SDS011;1248;48.694;10.160;2022-11-15T05:46:10;33.93;;;19.47;;
2474;SDS011;1248;48.694;10.160;2022-11-15T05:48:40;52.87;;;23.87;;
2474;SDS011;1248;48.694;10.160;2022-11-15T05:51:10;37.77;;;19.67;;
2474;SDS011;1248;48.694;10.160;2022-11-15T05:53:39;46.00;;;19.20;;
2474;SDS011;1248;48.694;10.160;2022-11-15T05:56:06;54.63;;;19.70;;
2474;SDS011;1248;48.694;10.160;2022-11-15T05:58:35;41.87;;;17.97;;
2474;SDS011;1248;48.694;10.160;2022-11-15T06:01:04;40.30;;;17.50;;
2474;SDS011;1248;48.694;10.160;2022-11-15T06:03:32;42.43;;;17.83;;
2474;SDS011;1248;48.694;10.160;2022-11-15T06:05:59;34.60;;;17.37;;
2474;SDS011;1248;48.694;10.160;2022-11-15T06:08:26;30.87;;;17.40;;
2474;SDS011;1248;48.694;10.160;2022-11-15T06:10:53;27.60;;;17.53;;
2474;SDS011;1248;48.694;10.160;2022-11-15T06:13:20;31.83;;;18.70;;
2474;SDS011;1248;48.694;10.160;2022-11-15T06:15:48;29.20;;;16.60;;
2474;SDS011;1248;48.694;10.160;2022-11-15T06:18:16;24.73;;;16.60;;
2474;SDS011;1248;48.694;10.160;2022-11-15T06:20:43;44.30;;;18.20;;
2474;SDS011;1248;48.694;10.160;2022-11-15T06:23:10;31.33;;;17.33;;
2474;SDS011;1248;48.694;10.160;2022-11-15T06:25:38;30.80;;;16.50;;
2474;SDS011;1248;48.694;10.160;2022-11-15T06:28:05;27.10;;;17.97;;
2474;SDS011;1248;48.694;10.160;2022-11-15T06:30:33;39.03;;;22.00;;
2474;SDS011;1248;48.694;10.160;2022-11-15T06:33:00;49.30;;;25.23;;
2474;SDS011;1248;48.694;10.160;2022-11-15T06:35:29;41.90;;;23.07;;
2474;SDS011;1248;48.694;10.160;2022-11-15T06:38:01;37.60;;;20.60;;
2474;SDS011;1248;48.694;10.160;2022-11-15T06:40:29;33.60;;;21.83;;
2474;SDS011;1248;48.694;10.160;2022-11-15T06:42:57;46.43;;;23.90;;
2474;SDS011;1248;48.694;10.160;2022-11-15T06:45:24;46.77;;;22.20;;
2474;SDS011;1248;48.694;10.160;2022-11-15T06:47:52;33.73;;;21.80;;
2474;SDS011;1248;48.694;10.160;2022-11-15T06:50:19;44.10;;;23.60;;
2474;SDS011;1248;48.694;10.160;2022-11-15T06:52:47;60.27;;;24.20;;
2474;SDS011;1248;48.694;10.160;2022-11-15T06:55:14;57.40;;;25.93;;
2474;SDS011;1248;48.694;10.160;2022-11-15T06:57:51;39.87;;;21.70;;
2474;SDS011;1248;48.694;10.160;2022-11-15T07:00:21;35.77;;;20.30;;
2474;SDS011;1248;48.694;10.160;2022-11-15T07:02:48;34.70;;;19.70;;
2474;SDS011;1248;48.694;10.160;2022-11-15T07:05:15;39.83;;;21.07;;
2474;SDS011;1248;48.694;10.160;2022-11-15T07:07:43;42.17;;;22.70;;
2474;SDS011;1248;48.694;10.160;2022-11-15T07:10:11;32.53;;;20.00;;
2474;SDS011;1248;48.694;10.160;2022-11-15T07:12:38;28.03;;;18.13;;
2474;SDS011;1248;48.694;10.160;2022-11-15T07:15:06;33.10;;;17.10;;
2474;SDS011;1248;48.694;10.160;2022-11-15T07:17:34;27.30;;;18.20;;
2474;SDS011;1248;48.694;10.160;2022-11-15T07:20:01;22.07;;;17.10;;
2474;SDS011;1248;48.694;10.160;2022-11-15T07:22:28;31.00;;;17.67;;
2474;SDS011;1248;48.694;10.160;2022-11-15T07:24:55;24.70;;;17.77;;
2474;SDS011;1248;48.694;10.160;2022-11-15T07:27:23;21.60;;;15.90;;
2474;SDS011;1248;48.694;10.160;2022-11-15T07:29:50;21.87;;;17.20;;
2474;SDS011;1248;48.694;10.160;2022-11-15T07:32:17;27.13;;;18.57;;
2474;SDS011;1248;48.694;10.160;2022-11-15T07:34:44;38.63;;;21.60;;
2474;SDS011;1248;48.694;10.160;2022-11-15T07:37:12;29.07;;;20.77;;
2474;SDS011;1248;48.694;10.160;2022-11-15T07:39:39;40.43;;;23.93;;
2474;SDS011;1248;48.694;10.160;2022-11-15T07:42:06;18.87;;;14.43;;
2474;SDS011;1248;48.694;10.160;2022-11-15T07:44:52;20.17;;;15.70;;
2474;SDS011;1248;48.694;10.160;2022-11-15T07:47:19;23.00;;;17.80;;
2474;SDS011;1248;48.694;10.160;2022-11-15T07:49:47;25.47;;;18.70;;
2474;SDS011;1248;48.694;10.160;2022-11-15T07:52:14;24.37;;;18.33;;
2474;SDS011;1248;48.694;10.160;2022-11-15T07:54:41;23.63;;;17.60;;
2474;SDS011;1248;48.694;10.160;2022-11-15T07:57:08;20.43;;;16.50;;
2474;SDS011;1248;48.694;10.160;2022-11-15T07:59:35;21.43;;;17.23;;
2474;SDS011;1248;48.694;10.160;2022-11-15T08:02:04;22.17;;;17.27;;
2474;SDS011;1248;48.694;10.160;2022-11-15T08:04:31;26.70;;;17.20;;
2474;SDS011;1248;48.694;10.160;2022-11-15T08:06:58;20.73;;;16.97;;
2474;SDS011;1248;48.694;10.160;2022-11-15T08:09:25;23.10;;;16.73;;
2474;SDS011;1248;48.694;10.160;2022-11-15T08:11:52;21.07;;;16.33;;
2474;SDS011;1248;48.694;10.160;2022-11-15T08:14:19;22.17;;;16.73;;
2474;SDS011;1248;48.694;10.160;2022-11-15T08:16:47;23.37;;;15.40;;
2474;SDS011;1248;48.694;10.160;2022-11-15T08:19:16;23.03;;;15.93;;
2474;SDS011;1248;48.694;10.160;2022-11-15T08:21:43;25.40;;;16.90;;
2474;SDS011;1248;48.694;10.160;2022-11-15T08:24:10;25.80;;;15.40;;
2474;SDS011;1248;48.694;10.160;2022-11-15T08:26:37;22.13;;;14.30;;
2474;SDS011;1248;48.694;10.160;2022-11-15T08:29:05;20.80;;;15.90;;
2474;SDS011;1248;48.694;10.160;2022-11-15T08:31:33;22.43;;;14.20;;
2474;SDS011;1248;48.694;10.160;2022-11-15T08:34:00;17.53;;;14.40;;
2474;SDS011;1248;48.694;10.160;2022-11-15T08:36:29;19.10;;;14.70;;
2474;SDS011;1248;48.694;10.160;2022-11-15T08:38:56;19.43;;;15.30;;
2474;SDS011;1248;48.694;10.160;2022-11-15T08:41:25;17.47;;;15.40;;
2474;SDS011;1248;48.694;10.160;2022-11-15T08:43:53;16.70;;;13.93;;
2474;SDS011;1248;48.694;10.160;2022-11-15T08:46:20;19.10;;;15.20;;
2474;SDS011;1248;48.694;10.160;2022-11-15T08:48:47;23.27;;;15.90;;
2474;SDS011;1248;48.694;10.160;2022-11-15T08:51:14;18.17;;;13.53;;
2474;SDS011;1248;48.694;10.160;2022-11-15T08:53:43;16.93;;;14.77;;
2474;SDS011;1248;48.694;10.160;2022-11-15T08:56:11;22.30;;;14.20;;
2474;SDS011;1248;48.694;10.160;2022-11-15T08:58:40;15.70;;;13.90;;
2474;SDS011;1248;48.694;10.160;2022-11-15T09:01:13;18.40;;;14.60;;
2474;SDS011;1248;48.694;10.160;2022-11-15T09:03:41;19.80;;;14.10;;
2474;SDS011;1248;48.694;10.160;2022-11-15T09:06:08;17.83;;;13.57;;
2474;SDS011;1248;48.694;10.160;2022-11-15T09:08:36;23.40;;;15.00;;
2474;SDS011;1248;48.694;10.160;2022-11-15T09:11:05;17.97;;;14.00;;
2474;SDS011;1248;48.694;10.160;2022-11-15T09:13:32;17.80;;;14.50;;
2474;SDS011;1248;48.694;10.160;2022-11-15T09:16:00;19.10;;;13.63;;
2474;SDS011;1248;48.694;10.160;2022-11-15T09:18:27;17.90;;;13.90;;
2474;SDS011;1248;48.694;10.160;2022-11-15T09:20:54;18.37;;;13.87;;
2474;SDS011;1248;48.694;10.160;2022-11-15T09:23:23;20.93;;;14.23;;
2474;SDS011;1248;48.694;10.160;2022-11-15T09:25:50;18.00;;;14.53;;
2474;SDS011;1248;48.694;10.160;2022-11-15T09:28:18;17.50;;;13.97;;
2474;SDS011;1248;48.694;10.160;2022-11-15T09:30:46;14.70;;;12.30;;
2474;SDS011;1248;48.694;10.160;2022-11-15T09:33:13;19.37;;;13.10;;
2474;SDS011;1248;48.694;10.160;2022-11-15T09:35:40;15.90;;;12.17;;
2474;SDS011;1248;48.694;10.160;2022-11-15T09:38:07;14.60;;;11.57;;
2474;SDS011;1248;48.694;10.160;2022-11-15T09:40:35;16.87;;;12.10;;
2474;SDS011;1248;48.694;10.160;2022-11-15T09:43:15;17.23;;;13.00;;
2474;SDS011;1248;48.694;10.160;2022-11-15T09:45:58;17.50;;;12.33;;
2474;SDS011;1248;48.694;10.160;2022-11-15T09:51:23;18.40;;;11.43;;
2474;SDS011;1248;48.694;10.160;2022-11-15T09:53:55;21.13;;;11.47;;
2474;SDS011;1248;48.694;10.160;2022-11-15T09:56:25;19.30;;;12.07;;
2474;SDS011;1248;48.694;10.160;2022-11-15T09:58:57;11.80;;;10.57;;
2474;SDS011;1248;48.694;10.160;2022-11-15T10:01:34;14.30;;;10.93;;
2474;SDS011;1248;48.694;10.160;2022-11-15T10:04:05;12.63;;;10.90;;
2474;SDS011;1248;48.694;10.160;2022-11-15T10:06:33;12.87;;;10.07;;
2474;SDS011;1248;48.694;10.160;2022-11-15T10:09:03;13.63;;;9.93;;
2474;SDS011;1248;48.694;10.160;2022-11-15T10:11:34;16.90;;;10.67;;
2474;SDS011;1248;48.694;10.160;2022-11-15T10:14:05;11.73;;;9.70;;
2474;SDS011;1248;48.694;10.160;2022-11-15T10:16:56;10.30;;;9.13;;
2474;SDS011;1248;48.694;10.160;2022-11-15T10:19:45;19.57;;;11.10;;
2474;SDS011;1248;48.694;10.160;2022-11-15T10:22:27;17.93;;;11.03;;
2474;SDS011;1248;48.694;10.160;2022-11-15T10:27:54;18.40;;;11.37;;
2474;SDS011;1248;48.694;10.160;2022-11-15T10:30:29;14.70;;;10.07;;
2474;SDS011;1248;48.694;10.160;2022-11-15T10:33:09;16.77;;;11.67;;
2474;SDS011;1248;48.694;10.160;2022-11-15T10:35:39;17.10;;;11.33;;
2474;SDS011;1248;48.694;10.160;2022-11-15T10:38:07;16.60;;;11.20;;
2474;SDS011;1248;48.694;10.160;2022-11-15T10:40:35;16.27;;;10.67;;
2474;SDS011;1248;48.694;10.160;2022-11-15T10:43:12;16.83;;;10.20;;
2474;SDS011;1248;48.694;10.160;2022-11-15T10:45:42;15.90;;;10.00;;
2474;SDS011;1248;48.694;10.160;2022-11-15T10:48:20;17.53;;;10.13;;
2474;SDS011;1248;48.694;10.160;2022-11-15T10:50:50;14.40;;;9.67;;
2474;SDS011;1248;48.694;10.160;2022-11-15T10:53:20;14.00;;;10.00;;
2474;SDS011;1248;48.694;10.160;2022-11-15T10:55:50;13.97;;;9.80;;
2474;SDS011;1248;48.694;10.160;2022-11-15T10:58:20;18.47;;;11.67;;
2474;SDS011;1248;48.694;10.160;2022-11-15T11:00:50;17.20;;;11.10;;
2474;SDS011;1248;48.694;10.160;2022-11-15T11:03:26;13.67;;;9.43;;
2474;SDS011;1248;48.694;10.160;2022-11-15T11:06:05;13.57;;;10.00;;
2474;SDS011;1248;48.694;10.160;2022-11-15T11:08:34;12.77;;;9.73;;
2474;SDS011;1248;48.694;10.160;2022-11-15T11:11:02;10.83;;;8.60;;
2474;SDS011;1248;48.694;10.160;2022-11-15T11:13:31;10.60;;;7.53;;
2474;SDS011;1248;48.694;10.160;2022-11-15T11:16:08;9.50;;;7.90;;
2474;SDS011;1248;48.694;10.160;2022-11-15T11:18:45;8.47;;;7.50;;
2474;SDS011;1248;48.694;10.160;2022-11-15T11:21:18;7.53;;;6.50;;
2474;SDS011;1248;48.694;10.160;2022-11-15T11:23:52;7.20;;;6.27;;
2474;SDS011;1248;48.694;10.160;2022-11-15T11:26:31;7.00;;;6.30;;
2474;SDS011;1248;48.694;10.160;2022-11-15T11:29:05;7.47;;;6.57;;
2474;SDS011;1248;48.694;10.160;2022-11-15T11:31:44;7.40;;;6.03;;
2474;SDS011;1248;48.694;10.160;2022-11-15T11:34:15;11.43;;;6.40;;
2474;SDS011;1248;48.694;10.160;2022-11-15T11:36:45;8.13;;;6.13;;
2474;SDS011;1248;48.694;10.160;2022-11-15T11:39:20;6.70;;;5.80;;
2474;SDS011;1248;48.694;10.160;2022-11-15T11:41:56;5.90;;;5.30;;
2474;SDS011;1248;48.694;10.160;2022-11-15T11:44:30;8.13;;;7.00;;
2474;SDS011;1248;48.694;10.160;2022-11-15T11:47:03;8.50;;;6.97;;
2474;SDS011;1248;48.694;10.160;2022-11-15T11:49:34;6.50;;;5.77;;
2474;SDS011;1248;48.694;10.160;2022-11-15T11:52:08;8.40;;;6.27;;
2474;SDS011;1248;48.694;10.160;2022-11-15T11:54:40;5.80;;;5.30;;
2474;SDS011;1248;48.694;10.160;2022-11-15T11:57:13;5.30;;;4.80;;
2474;SDS011;1248;48.694;10.160;2022-11-15T11:59:46;9.90;;;5.23;;
2474;SDS011;1248;48.694;10.160;2022-11-15T12:02:18;5.60;;;5.10;;
2474;SDS011;1248;48.694;10.160;2022-11-15T12:04:48;10.70;;;5.60;;
2474;SDS011;1248;48.694;10.160;2022-11-15T12:07:17;5.47;;;4.77;;
2474;SDS011;1248;48.694;10.160;2022-11-15T12:09:48;8.50;;;5.07;;
2474;SDS011;1248;48.694;10.160;2022-11-15T12:12:21;7.07;;;5.20;;
2474;SDS011;1248;48.694;10.160;2022-11-15T12:14:53;6.23;;;5.47;;
2474;SDS011;1248;48.694;10.160;2022-11-15T12:17:24;9.53;;;5.20;;
2474;SDS011;1248;48.694;10.160;2022-11-15T12:19:55;7.30;;;5.60;;
2474;SDS011;1248;48.694;10.160;2022-11-15T12:22:23;8.30;;;5.50;;
2474;SDS011;1248;48.694;10.160;2022-11-15T12:25:04;5.53;;;4.90;;
2474;SDS011;1248;48.694;10.160;2022-11-15T12:27:35;4.77;;;4.33;;
2474;SDS011;1248;48.694;10.160;2022-11-15T12:30:08;6.70;;;5.13;;
2474;SDS011;1248;48.694;10.160;2022-11-15T12:32:39;7.17;;;5.73;;
2474;SDS011;1248;48.694;10.160;2022-11-15T12:35:20;6.10;;;5.50;;
2474;SDS011;1248;48.694;10.160;2022-11-15T12:37:51;9.70;;;5.60;;
2474;SDS011;1248;48.694;10.160;2022-11-15T12:40:27;5.60;;;5.10;;
2474;SDS011;1248;48.694;10.160;2022-11-15T12:43:03;6.03;;;5.43;;
2474;SDS011;1248;48.694;10.160;2022-11-15T12:45:34;6.97;;;5.20;;
2474;SDS011;1248;48.694;10.160;2022-11-15T12:51:14;6.80;;;5.00;;
2474;SDS011;1248;48.694;10.160;2022-11-15T12:53:41;4.80;;;3.97;;
2474;SDS011;1248;48.694;10.160;2022-11-15T12:56:09;5.93;;;4.40;;
2474;SDS011;1248;48.694;10.160;2022-11-15T12:58:52;10.53;;;4.17;;
2474;SDS011;1248;48.694;10.160;2022-11-15T13:04:27;6.80;;;4.20;;
2474;SDS011;1248;48.694;10.160;2022-11-15T13:06:58;5.40;;;4.33;;
2474;SDS011;1248;48.694;10.160;2022-11-15T13:15:36;5.23;;;4.63;;
2474;SDS011;1248;48.694;10.160;2022-11-15T13:20:56;7.67;;;5.80;;
2474;SDS011;1248;48.694;10.160;2022-11-15T13:23:24;9.47;;;5.13;;
2474;SDS011;1248;48.694;10.160;2022-11-15T13:26:08;5.23;;;4.73;;
2474;SDS011;1248;48.694;10.160;2022-11-15T13:28:39;6.03;;;5.33;;
2474;SDS011;1248;48.694;10.160;2022-11-15T13:31:21;6.43;;;4.87;;
2474;SDS011;1248;48.694;10.160;2022-11-15T13:33:50;5.97;;;5.17;;
2474;SDS011;1248;48.694;10.160;2022-11-15T13:36:20;10.67;;;5.83;;
2474;SDS011;1248;48.694;10.160;2022-11-15T13:38:57;7.30;;;5.60;;
2474;SDS011;1248;48.694;10.160;2022-11-15T13:41:26;7.67;;;4.93;;
2474;SDS011;1248;48.694;10.160;2022-11-15T13:43:54;7.80;;;4.90;;
2474;SDS011;1248;48.694;10.160;2022-11-15T13:46:23;5.70;;;5.03;;
2474;SDS011;1248;48.694;10.160;2022-11-15T13:48:51;7.13;;;4.77;;
2474;SDS011;1248;48.694;10.160;2022-11-15T13:51:23;5.53;;;5.03;;
2474;SDS011;1248;48.694;10.160;2022-11-15T13:53:54;8.17;;;5.80;;
2474;SDS011;1248;48.694;10.160;2022-11-15T13:56:22;5.90;;;5.30;;
2474;SDS011;1248;48.694;10.160;2022-11-15T13:58:49;7.70;;;4.87;;
2474;SDS011;1248;48.694;10.160;2022-11-15T14:01:17;7.30;;;5.60;;
2474;SDS011;1248;48.694;10.160;2022-11-15T14:03:47;6.00;;;5.40;;
2474;SDS011;1248;48.694;10.160;2022-11-15T14:06:18;7.10;;;5.90;;
2474;SDS011;1248;48.694;10.160;2022-11-15T14:11:51;9.37;;;5.17;;
2474;SDS011;1248;48.694;10.160;2022-11-15T14:14:20;7.70;;;5.90;;
2474;SDS011;1248;48.694;10.160;2022-11-15T14:16:49;7.93;;;5.43;;
2474;SDS011;1248;48.694;10.160;2022-11-15T14:19:34;4.80;;;4.20;;
2474;SDS011;1248;48.694;10.160;2022-11-15T14:22:13;10.00;;;4.27;;
2474;SDS011;1248;48.694;10.160;2022-11-15T14:24:43;6.03;;;4.33;;
2474;SDS011;1248;48.694;10.160;2022-11-15T14:27:16;5.97;;;3.80;;
2474;SDS011;1248;48.694;10.160;2022-11-15T14:29:47;7.27;;;3.90;;
2474;SDS011;1248;48.694;10.160;2022-11-15T14:32:16;4.17;;;3.77;;
2474;SDS011;1248;48.694;10.160;2022-11-15T14:34:44;5.97;;;4.17;;
2474;SDS011;1248;48.694;10.160;2022-11-15T14:37:16;7.20;;;4.40;;
2474;SDS011;1248;48.694;10.160;2022-11-15T14:39:47;5.00;;;4.50;;
2474;SDS011;1248;48.694;10.160;2022-11-15T14:42:15;5.37;;;4.87;;
2474;SDS011;1248;48.694;10.160;2022-11-15T14:44:42;5.43;;;4.90;;
2474;SDS011;1248;48.694;10.160;2022-11-15T14:47:09;6.50;;;5.90;;
2474;SDS011;1248;48.694;10.160;2022-11-15T14:49:36;7.80;;;6.77;;
2474;SDS011;1248;48.694;10.160;2022-11-15T14:52:07;10.53;;;7.43;;
2474;SDS011;1248;48.694;10.160;2022-11-15T14:54:51;10.17;;;6.43;;
2474;SDS011;1248;48.694;10.160;2022-11-15T14:57:18;8.63;;;7.00;;
2474;SDS011;1248;48.694;10.160;2022-11-15T14:59:45;12.33;;;7.90;;
2474;SDS011;1248;48.694;10.160;2022-11-15T15:02:14;9.30;;;7.57;;
2474;SDS011;1248;48.694;10.160;2022-11-15T15:04:43;11.40;;;7.77;;
2474;SDS011;1248;48.694;10.160;2022-11-15T15:07:10;10.03;;;7.60;;
2474;SDS011;1248;48.694;10.160;2022-11-15T15:09:37;8.23;;;7.20;;
2474;SDS011;1248;48.694;10.160;2022-11-15T15:12:08;9.30;;;7.57;;
2474;SDS011;1248;48.694;10.160;2022-11-15T15:14:40;7.70;;;6.90;;
2474;SDS011;1248;48.694;10.160;2022-11-15T15:17:07;11.30;;;7.43;;
2474;SDS011;1248;48.694;10.160;2022-11-15T15:19:34;10.33;;;7.30;;
2474;SDS011;1248;48.694;10.160;2022-11-15T15:22:01;6.93;;;6.20;;
2474;SDS011;1248;48.694;10.160;2022-11-15T15:24:28;12.70;;;8.30;;
2474;SDS011;1248;48.694;10.160;2022-11-15T15:26:55;9.20;;;7.77;;